Time;durP1;ratioP1;P1;durP2;ratioP2;P2;SDS_P1;SDS_P2;PMS_P1;PMS_P2;Temp;Humidity;BMP_temperature;BMP_pressure;BME280_temperature;BME280_humidity;BME280_pressure;Samples;Min_cycle;Max_cycle;Signal;HPM_P1;HPM_P2
2023/04/15 00:00:36;;;;;;;;;14.00;14.00;;;;;10.80;73.75;99713.59;5058434;28;45451;-60
2023/04/15 00:03:01;;;;;;;;;2.75;2.75;;;;;10.82;73.16;99698.59;5058732;28;45349;-60
2023/04/15 00:05:30;;;;;;;;;14.00;14.00;;;;;10.82;73.36;99699.44;5058013;28;45363;-60
2023/04/15 00:07:56;;;;;;;;;17.25;17.25;;;;;10.79;73.10;99691.72;5057236;28;45500;-60
2023/04/15 00:10:21;;;;;;;;;18.50;17.50;;;;;10.79;73.43;99698.75;5058087;28;45312;-60
2023/04/15 00:12:46;;;;;;;;;14.00;14.00;;;;;10.76;73.68;99693.66;5058550;28;45429;-61
2023/04/15 00:15:12;;;;;;;;;15.50;14.00;;;;;10.74;73.84;99677.94;5057642;28;45395;-61
2023/04/15 00:17:38;;;;;;;;;21.25;18.25;;;;;10.74;73.26;99682.34;5057028;28;46209;-61
2023/04/15 00:20:05;;;;;;;;;17.25;14.25;;;;;10.68;74.15;99675.63;5058160;28;45549;-61
2023/04/15 00:22:31;;;;;;;;;17.00;17.00;;;;;10.64;74.01;99663.59;5057920;28;45407;-60
2023/04/15 00:24:57;;;;;;;;;14.50;13.50;;;;;10.54;74.26;99651.81;5057957;28;45540;-60
2023/04/15 00:27:22;;;;;;;;;15.00;15.00;;;;;10.61;74.39;99666.34;5057276;28;45498;-60
2023/04/15 00:29:47;;;;;;;;;10.50;10.50;;;;;10.63;74.00;99661.03;5056756;28;45486;-59
2023/04/15 00:32:13;;;;;;;;;15.50;14.25;;;;;10.64;73.66;99666.22;5057864;28;45437;-59
2023/04/15 00:34:38;;;;;;;;;17.50;15.50;;;;;10.67;73.87;99667.84;5057874;28;45409;-59
2023/04/15 00:37:04;;;;;;;;;16.75;16.50;;;;;10.66;74.60;99661.69;5057180;28;45435;-60
2023/04/15 00:39:29;;;;;;;;;12.75;12.75;;;;;10.63;74.01;99661.03;5057737;28;45483;-60
2023/04/15 00:41:56;;;;;;;;;17.25;17.25;;;;;10.54;74.16;99647.41;5057917;28;45438;-59
2023/04/15 00:44:22;;;;;;;;;17.00;14.00;;;;;10.63;74.26;99655.75;5056680;28;45315;-60
2023/04/15 00:46:50;;;;;;;;;14.00;14.00;;;;;10.63;74.41;99658.38;5056953;28;46270;-60
2023/04/15 00:49:16;;;;;;;;;18.75;17.00;;;;;10.63;74.47;99645.25;5056467;28;45549;-59
2023/04/15 00:51:41;;;;;;;;;16.00;14.00;;;;;10.62;74.50;99654.91;5055285;28;45545;-58
2023/04/15 00:54:07;;;;;;;;;14.00;14.00;;;;;10.62;74.84;99644.41;5056957;28;52962;-59
2023/04/15 00:56:37;;;;;;;;;16.50;16.50;;;;;10.60;74.90;99635.72;5057486;28;46167;-61
2023/04/15 00:59:03;;;;;;;;;13.75;13.75;;;;;10.65;74.58;99641.59;5057049;28;45516;-61
2023/04/15 01:01:29;;;;;;;;;20.00;17.50;;;;;10.69;74.30;99642.28;5057464;28;45550;-61
2023/04/15 01:03:59;;;;;;;;;13.33;12.33;;;;;10.68;75.04;99644.06;5057515;28;45418;-59
2023/04/15 01:06:26;;;;;;;;;15.00;15.00;;;;;10.70;74.46;99633.50;5055511;28;45392;-60
2023/04/15 01:08:51;;;;;;;;;15.50;14.75;;;;;10.73;74.83;99636.81;5055029;28;46151;-59
2023/04/15 01:11:17;;;;;;;;;16.33;15.00;;;;;10.69;74.53;99634.41;5056599;28;45537;-60
2023/04/15 01:13:43;;;;;;;;;18.50;17.50;;;;;10.71;75.00;99637.81;5055800;28;45455;-59
2023/04/15 01:16:08;;;;;;;;;17.25;16.00;;;;;10.65;74.71;99623.19;5053335;28;45661;-60
2023/04/15 01:18:36;;;;;;;;;16.75;16.25;;;;;10.73;74.70;99642.06;5055668;28;45523;-59
2023/04/15 01:21:03;;;;;;;;;18.50;17.00;;;;;10.75;75.15;99629.69;5056516;28;45476;-59
2023/04/15 01:23:29;;;;;;;;;12.50;11.00;;;;;10.74;74.85;99633.22;5071805;28;45332;-59
2023/04/15 01:25:55;;;;;;;;;14.67;14.33;;;;;10.69;74.90;99622.09;5056174;28;45386;-60
2023/04/15 01:28:21;;;;;;;;;15.00;15.00;;;;;10.72;75.12;99627.22;5053837;28;45890;-59
2023/04/15 01:30:46;;;;;;;;;14.50;13.25;;;;;10.70;74.55;99615.94;5056022;28;45535;-59
2023/04/15 01:33:12;;;;;;;;;15.00;14.75;;;;;10.72;74.89;99619.34;5055773;28;57622;-60
2023/04/15 01:35:37;;;;;;;;;19.50;17.75;;;;;10.70;74.87;99621.19;5056059;28;46424;-60
2023/04/15 01:38:08;;;;;;;;;17.50;16.50;;;;;10.70;75.50;99620.34;5055474;28;45504;-60
2023/04/15 01:40:34;;;;;;;;;14.50;13.25;;;;;10.68;75.66;99625.66;5056385;28;45328;-60
2023/04/15 01:43:01;;;;;;;;;18.50;16.00;;;;;10.70;75.36;99634.34;5055512;28;45530;-58
2023/04/15 01:45:26;;;;;;;;;15.00;14.50;;;;;10.73;75.85;99635.97;5056267;28;46086;-60
2023/04/15 01:47:52;;;;;;;;;14.00;13.67;;;;;10.71;75.33;99630.78;5055280;28;45518;-60
2023/04/15 01:50:17;;;;;;;;;14.50;14.50;;;;;10.68;75.84;99623.03;5055344;28;45563;-59
2023/04/15 01:52:43;;;;;;;;;13.75;13.00;;;;;10.61;76.43;99622.53;5055159;28;45550;-59
2023/04/15 01:55:10;;;;;;;;;10.25;10.25;;;;;10.56;76.28;99621.06;5053826;28;46126;-59
2023/04/15 01:57:35;;;;;;;;;12.00;9.33;;;;;10.66;76.65;99632.78;5057238;28;45447;-60
2023/04/15 02:00:02;;;;;;;;;15.00;13.00;;;;;10.70;75.89;99631.72;5056749;28;45422;-59
2023/04/15 02:02:28;;;;;;;;;11.00;9.67;;;;;10.73;75.93;99631.53;5054891;28;45353;-59
2023/04/15 02:04:53;;;;;;;;;9.00;8.00;;;;;10.74;75.59;99629.75;5056229;28;45402;-59
2023/04/15 02:07:18;;;;;;;;;6.67;6.67;;;;;10.72;75.33;99642.13;5054263;28;45578;-59
2023/04/15 02:09:44;;;;;;;;;5.67;5.67;;;;;10.71;75.06;99633.41;5056357;28;45508;-60
2023/04/15 02:12:10;;;;;;;;;7.00;7.00;;;;;10.69;75.58;99635.25;5056386;28;45470;-58
2023/04/15 02:14:36;;;;;;;;;5.00;5.00;;;;;10.68;76.28;99640.59;5056007;28;46061;-60
2023/04/15 02:17:06;;;;;;;;;5.00;5.00;;;;;10.66;75.84;99642.44;5056217;28;45562;-60
2023/04/15 02:19:32;;;;;;;;;5.33;5.00;;;;;10.66;75.79;99634.56;5056727;28;45517;-60
2023/04/15 02:21:57;;;;;;;;;7.00;6.00;;;;;10.68;75.78;99638.81;5055208;27;45578;-59
2023/04/15 02:24:22;;;;;;;;;5.33;5.33;;;;;10.73;75.37;99651.75;5056179;28;46244;-61
2023/04/15 02:26:48;;;;;;;;;5.00;5.00;;;;;10.73;75.57;99649.97;5055444;28;45529;-59
2023/04/15 02:29:13;;;;;;;;;5.00;5.00;;;;;10.73;76.21;99655.22;5055508;28;45482;-60
2023/04/15 02:31:40;;;;;;;;;6.67;4.00;;;;;10.75;76.50;99656.00;5055152;28;50178;-60
2023/04/15 02:34:06;;;;;;;;;5.67;5.67;;;;;10.74;75.75;99651.66;5054724;28;45420;-60
2023/04/15 02:36:31;;;;;;;;;6.00;6.00;;;;;10.74;76.28;99664.78;5054372;28;45630;-60
2023/04/15 02:38:57;;;;;;;;;4.67;4.67;;;;;10.70;76.18;99668.53;5056004;27;45353;-60
2023/04/15 02:41:26;;;;;;;;;9.67;8.00;;;;;10.67;76.13;99666.06;5055934;28;45356;-58
2023/04/15 02:43:51;;;;;;;;;8.00;7.00;;;;;10.68;76.39;99670.38;5055458;28;47076;-60
2023/04/15 02:46:17;;;;;;;;;9.67;9.67;;;;;10.69;76.65;99676.47;5055271;28;45414;-60
2023/04/15 02:48:42;;;;;;;;;8.25;8.25;;;;;10.42;76.35;99629.63;5055161;28;45550;-60
2023/04/15 02:51:15;;;;;;;;;9.75;9.75;;;;;10.67;76.98;99689.72;5055360;28;56003;-60
2023/04/15 02:53:41;;;;;;;;;8.00;8.00;;;;;10.69;76.82;99692.25;5056024;28;45990;-59
2023/04/15 02:56:07;;;;;;;;;8.00;8.00;;;;;10.69;76.39;99697.50;5055753;28;45521;-60
2023/04/15 02:58:33;;;;;;;;;10.67;9.33;;;;;10.69;77.09;99695.72;5055403;28;45467;-60
2023/04/15 03:00:59;;;;;;;;;9.67;9.67;;;;;10.71;76.55;99709.66;5055984;28;45561;-59
2023/04/15 03:03:25;;;;;;;;;9.33;8.00;;;;;10.71;76.90;99707.03;5055580;28;45462;-60
2023/04/15 03:05:50;;;;;;;;;14.25;13.00;;;;;10.68;76.63;99711.59;5055015;28;45382;-59
2023/04/15 03:08:16;;;;;;;;;12.33;10.67;;;;;10.70;76.61;99715.00;5053942;28;45344;-60
2023/04/15 03:10:41;;;;;;;;;13.50;12.00;;;;;10.72;76.39;99727.16;5069464;27;45478;-58
2023/04/15 03:13:07;;;;;;;;;11.00;11.00;;;;;10.69;76.66;99721.19;5053989;28;45510;-58
2023/04/15 03:15:33;;;;;;;;;14.25;14.25;;;;;10.71;76.09;99727.22;5054739;28;45866;-60
2023/04/15 03:17:58;;;;;;;;;12.33;10.67;;;;;10.71;76.08;99738.59;5053215;28;45471;-59
2023/04/15 03:20:23;;;;;;;;;11.00;10.00;;;;;10.69;76.89;99732.53;5055323;28;45406;-59
2023/04/15 03:22:48;;;;;;;;;13.00;13.00;;;;;10.66;76.38;99748.47;5055467;28;46377;-60
2023/04/15 03:25:14;;;;;;;;;9.00;9.00;;;;;10.63;76.29;99746.00;5054571;28;45575;-60
2023/04/15 03:27:40;;;;;;;;;9.75;8.75;;;;;10.64;76.88;99745.09;5054557;28;45384;-59
2023/04/15 03:30:06;;;;;;;;;11.33;9.67;;;;;10.65;76.12;99754.69;5055658;28;45586;-60
2023/04/15 03:32:32;;;;;;;;;8.50;6.75;;;;;10.63;76.66;99747.78;5052127;28;45950;-59
2023/04/15 03:34:57;;;;;;;;;9.33;9.33;;;;;10.61;76.86;99743.47;5053865;28;45449;-60
2023/04/15 03:37:22;;;;;;;;;7.00;6.00;;;;;10.66;76.03;99755.53;5054417;28;62915;-59
2023/04/15 03:39:48;;;;;;;;;5.75;5.75;;;;;10.64;75.57;99754.75;5054422;28;45353;-59
2023/04/15 03:42:13;;;;;;;;;6.25;6.25;;;;;10.61;75.01;99753.13;5055012;28;45468;-60
2023/04/15 03:44:38;;;;;;;;;8.00;8.00;;;;;10.58;75.19;99758.53;5054323;28;45403;-60
2023/04/15 03:47:04;;;;;;;;;8.00;5.00;;;;;10.58;74.80;99763.78;5055078;28;45441;-58
2023/04/15 03:49:29;;;;;;;;;7.00;7.00;;;;;10.52;75.34;99767.56;5055457;28;45633;-59
2023/04/15 03:51:54;;;;;;;;;5.00;5.00;;;;;10.53;75.57;99765.78;5054940;28;45335;-60
2023/04/15 03:54:20;;;;;;;;;5.00;5.00;;;;;10.52;75.61;99774.59;5054686;28;45408;-60
2023/04/15 03:56:45;;;;;;;;;5.67;5.67;;;;;10.48;74.79;99767.81;5054025;28;45581;-60
2023/04/15 03:59:10;;;;;;;;;5.00;5.00;;;;;10.43;75.47;99769.81;5054566;28;45414;-60
2023/04/15 04:01:35;;;;;;;;;5.00;5.00;;;;;10.42;75.10;99774.19;5054816;28;52764;-59
2023/04/15 04:04:01;;;;;;;;;3.00;3.00;;;;;10.38;74.82;99780.53;5052575;28;59083;-59
2023/04/15 04:06:26;;;;;;;;;2.33;2.33;;;;;10.34;75.21;99787.72;5054794;28;52245;-60
2023/04/15 04:08:51;;;;;;;;;3.67;3.67;;;;;10.31;74.60;99781.75;5055156;28;45512;-60
2023/04/15 04:11:17;;;;;;;;;3.00;3.00;;;;;10.32;75.32;99788.72;5054847;28;45460;-60
2023/04/15 04:13:42;;;;;;;;;3.00;3.00;;;;;10.28;74.69;99787.16;5054055;28;45411;-59
2023/04/15 04:16:07;;;;;;;;;2.00;2.00;;;;;10.32;74.51;99793.97;5053928;28;45394;-60
2023/04/15 04:18:33;;;;;;;;;2.00;2.00;;;;;10.33;75.14;99793.03;5055859;28;45467;-60
2023/04/15 04:20:59;;;;;;;;;2.33;2.33;;;;;10.32;75.02;99796.59;5055584;28;52148;-61
2023/04/15 04:23:24;;;;;;;;;3.33;3.33;;;;;10.33;75.26;99800.91;5057550;28;45483;-59
2023/04/15 04:25:50;;;;;;;;;4.33;4.33;;;;;10.33;74.32;99801.78;5055439;28;45454;-59
2023/04/15 04:28:15;;;;;;;;;4.00;4.00;;;;;10.30;74.42;99795.81;5052694;28;45428;-60
2023/04/15 04:30:40;;;;;;;;;6.33;5.33;;;;;10.34;74.84;99805.25;5052421;28;45506;-60
2023/04/15 04:33:06;;;;;;;;;5.00;5.00;;;;;10.32;74.55;99810.59;5058032;28;45420;-60
2023/04/15 04:35:33;;;;;;;;;6.75;6.75;;;;;10.30;74.52;99816.84;5058286;28;45477;-60
2023/04/15 04:37:59;;;;;;;;;6.25;6.25;;;;;10.29;74.80;99809.84;5057903;28;45362;-59
2023/04/15 04:40:24;;;;;;;;;7.33;7.33;;;;;10.19;74.57;99801.53;5057197;28;45404;-60
2023/04/15 04:42:50;;;;;;;;;6.00;6.00;;;;;10.28;75.17;99816.06;5057985;28;45595;-60
2023/04/15 04:45:15;;;;;;;;;6.33;3.33;;;;;10.28;74.67;99824.78;5057176;28;45337;-57
2023/04/15 04:47:40;;;;;;;;;4.33;4.33;;;;;10.17;74.48;99806.00;5057425;28;48681;-60
2023/04/15 04:50:06;;;;;;;;;3.00;3.00;;;;;10.24;74.17;99817.09;5056196;28;53441;-59
2023/04/15 04:52:32;;;;;;;;;3.00;3.00;;;;;10.28;74.59;99827.41;5057633;28;45478;-59
2023/04/15 04:54:57;;;;;;;;;2.00;2.00;;;;;10.27;75.01;99835.34;5057080;28;45402;-60
2023/04/15 04:57:22;;;;;;;;;1.00;1.00;;;;;10.29;74.27;99839.66;5057431;28;45693;-60
2023/04/15 04:59:47;;;;;;;;;2.00;2.00;;;;;10.30;74.24;99836.09;5056613;28;45505;-61
2023/04/15 05:02:13;;;;;;;;;2.00;2.00;;;;;10.26;74.05;99837.13;5055568;28;54320;-59
2023/04/15 05:04:38;;;;;;;;;1.00;1.00;;;;;10.20;74.99;99824.25;5057037;28;54054;-60
2023/04/15 05:07:03;;;;;;;;;1.00;1.00;;;;;10.36;74.59;99853.34;5057475;28;45652;-60
2023/04/15 05:09:31;;;;;;;;;1.00;1.00;;;;;10.28;74.23;99845.81;5055094;28;47716;-60
2023/04/15 05:11:56;;;;;;;;;0.00;0.00;;;;;10.20;74.37;99840.03;5056828;28;45393;-60
2023/04/15 05:14:22;;;;;;;;;0.00;0.00;;;;;10.26;74.12;99873.03;5057189;28;45516;-60
2023/04/15 05:16:47;;;;;;;;;1.00;1.00;;;;;10.26;74.16;99881.81;5057201;28;45581;-59
2023/04/15 05:19:12;;;;;;;;;1.00;0.67;;;;;10.27;74.70;99882.66;5055457;27;62766;-60
2023/04/15 05:21:37;;;;;;;;;1.00;1.00;;;;;10.27;74.45;99894.03;5056167;28;59877;-59
2023/04/15 05:24:03;;;;;;;;;1.00;1.00;;;;;10.28;74.53;99897.53;5056538;28;52117;-60
2023/04/15 05:26:28;;;;;;;;;1.67;1.00;;;;;10.27;74.07;99901.94;5056585;28;45395;-59
2023/04/15 05:28:54;;;;;;;;;1.00;1.00;;;;;10.23;75.12;99896.84;5054248;28;45514;-59
2023/04/15 05:31:19;;;;;;;;;2.33;1.00;;;;;10.23;74.28;99904.72;5056028;28;45503;-59
2023/04/15 05:33:45;;;;;;;;;2.00;2.00;;;;;10.27;74.45;99922.97;5056041;28;45518;-59
2023/04/15 05:36:11;;;;;;;;;1.00;1.00;;;;;10.25;74.67;99916.03;5072015;28;45617;-59
2023/04/15 05:38:36;;;;;;;;;2.00;2.00;;;;;10.25;74.07;99923.91;5055994;28;46350;-59
2023/04/15 05:41:01;;;;;;;;;1.00;1.00;;;;;10.21;74.57;99928.47;5054802;28;45501;-61
2023/04/15 05:43:26;;;;;;;;;1.00;1.00;;;;;10.27;74.62;99927.34;5056383;28;45502;-60
2023/04/15 05:45:52;;;;;;;;;2.33;2.00;;;;;10.28;74.86;99935.16;5056827;28;45479;-60
2023/04/15 05:48:17;;;;;;;;;1.00;1.00;;;;;10.28;74.79;99944.81;5056352;28;59142;-60
2023/04/15 05:50:42;;;;;;;;;2.00;2.00;;;;;10.30;74.48;99943.00;5054668;28;48713;-60
2023/04/15 05:53:08;;;;;;;;;1.67;1.67;;;;;10.29;74.93;99955.28;5056975;28;45654;-60
2023/04/15 05:55:33;;;;;;;;;1.00;1.00;;;;;10.28;75.28;99947.47;5056949;28;45641;-60
2023/04/15 05:57:59;;;;;;;;;1.33;1.33;;;;;10.29;75.14;99959.66;5055943;28;45522;-60
2023/04/15 06:00:24;;;;;;;;;1.00;1.00;;;;;10.28;74.94;99965.84;5071570;27;45541;-59
2023/04/15 06:02:50;;;;;;;;;1.00;1.00;;;;;10.26;75.09;99967.66;5056899;28;45355;-59
2023/04/15 06:05:15;;;;;;;;;0.33;0.33;;;;;10.28;75.56;99981.63;5055094;28;45478;-59
2023/04/15 06:07:42;;;;;;;;;1.00;1.00;;;;;10.31;75.34;99974.44;5056583;28;46380;-59
2023/04/15 06:10:08;;;;;;;;;2.00;2.00;;;;;10.29;75.36;99973.69;5056483;28;45469;-59
2023/04/15 06:12:33;;;;;;;;;1.00;1.00;;;;;10.28;75.09;99992.97;5056372;28;45305;-59
2023/04/15 06:14:59;;;;;;;;;1.00;1.00;;;;;10.30;75.21;99983.25;5056755;28;45343;-60
2023/04/15 06:17:24;;;;;;;;;2.00;1.00;;;;;10.31;75.16;99998.09;5055837;28;45395;-60
2023/04/15 06:19:54;;;;;;;;;1.00;1.00;;;;;10.31;74.67;99994.63;5056108;27;45490;-59
2023/04/15 06:22:20;;;;;;;;;1.00;1.00;;;;;10.32;74.86;100014.75;5043398;28;45511;-61
2023/04/15 06:24:45;;;;;;;;;0.00;0.00;;;;;10.25;74.38;100008.84;5055950;28;45591;-60
2023/04/15 06:27:10;;;;;;;;;1.00;1.00;;;;;10.28;74.18;100023.66;5054938;28;45521;-59
2023/04/15 06:29:36;;;;;;;;;1.00;1.00;;;;;10.26;74.77;100030.72;5056471;28;45414;-59
2023/04/15 06:32:01;;;;;;;;;2.00;2.00;;;;;10.28;74.39;100035.03;5056314;28;45437;-60
2023/04/15 06:34:26;;;;;;;;;2.00;2.00;;;;;10.31;74.94;100044.56;5055526;28;57578;-59
2023/04/15 06:36:53;;;;;;;;;1.00;1.00;;;;;10.28;75.11;100048.19;5054986;28;51541;-60
2023/04/15 06:39:18;;;;;;;;;2.00;2.00;;;;;10.24;74.85;100049.22;5055766;28;45407;-59
2023/04/15 06:41:44;;;;;;;;;1.00;1.00;;;;;10.33;75.46;100058.50;5050624;28;45376;-59
2023/04/15 06:44:10;;;;;;;;;1.00;1.00;;;;;10.35;75.26;100057.53;5056169;28;45605;-59
2023/04/15 06:46:35;;;;;;;;;1.33;1.00;;;;;10.34;74.62;100073.34;5055042;28;46377;-58
2023/04/15 06:49:01;;;;;;;;;1.00;1.00;;;;;10.31;74.14;100071.69;5055282;28;45399;-60
2023/04/15 06:51:26;;;;;;;;;1.33;1.33;;;;;10.32;75.47;100083.94;5054618;28;45364;-60
2023/04/15 06:53:52;;;;;;;;;1.00;1.00;;;;;10.32;75.16;100083.94;5055880;28;45471;-59
2023/04/15 06:56:17;;;;;;;;;1.00;1.00;;;;;10.24;74.75;100069.38;5047128;28;46563;-60
2023/04/15 06:58:42;;;;;;;;;1.00;1.00;;;;;10.35;74.28;100096.09;5055618;28;45460;-58
2023/04/15 07:01:08;;;;;;;;;1.00;1.00;;;;;10.37;74.14;100094.25;5055917;28;45347;-58
2023/04/15 07:03:34;;;;;;;;;1.00;1.00;;;;;10.33;74.64;100095.31;5055150;28;45384;-60
2023/04/15 07:06:00;;;;;;;;;2.00;2.00;;;;;10.39;74.81;100110.81;5055036;28;45495;-61
2023/04/15 07:08:25;;;;;;;;;2.00;1.00;;;;;10.35;74.54;100099.56;5053605;28;45532;-60
2023/04/15 07:10:51;;;;;;;;;0.33;0.33;;;;;10.44;74.17;100116.72;5044734;28;46147;-60
2023/04/15 07:13:16;;;;;;;;;1.00;1.00;;;;;10.45;74.42;100126.34;5054921;28;45519;-60
2023/04/15 07:15:41;;;;;;;;;2.00;1.00;;;;;10.45;74.98;100131.59;5054455;28;46279;-60
2023/04/15 07:18:08;;;;;;;;;3.00;2.00;;;;;10.46;74.61;100132.44;5055286;28;55670;-59
2023/04/15 07:20:33;;;;;;;;;2.00;2.00;;;;;10.46;75.09;100137.69;5054258;28;45458;-59
2023/04/15 07:22:59;;;;;;;;;1.00;1.00;;;;;10.33;74.91;100125.06;5055640;28;45512;-59
2023/04/15 07:25:24;;;;;;;;;2.00;2.00;;;;;10.44;75.28;100142.16;5054369;28;54921;-59
2023/04/15 07:27:50;;;;;;;;;2.00;2.00;;;;;10.46;75.31;100154.31;5054929;28;45452;-61
2023/04/15 07:30:15;;;;;;;;;2.00;2.00;;;;;10.47;75.04;100156.03;5055639;28;45396;-60
2023/04/15 07:32:41;;;;;;;;;3.00;3.00;;;;;10.52;75.18;100172.47;5055460;28;45395;-59
2023/04/15 07:35:08;;;;;;;;;3.33;2.00;;;;;10.49;75.54;100162.06;5053657;28;46028;-59
2023/04/15 07:37:34;;;;;;;;;2.00;2.00;;;;;10.53;75.19;100170.69;5053342;28;45675;-59
2023/04/15 07:39:59;;;;;;;;;2.00;2.00;;;;;10.54;75.13;100177.66;5053138;28;45474;-60
2023/04/15 07:42:25;;;;;;;;;1.00;1.00;;;;;10.53;74.89;100176.81;5055263;28;45628;-59
2023/04/15 07:44:50;;;;;;;;;2.00;2.00;;;;;10.47;75.03;100168.31;5053339;28;45409;-59
2023/04/15 07:47:16;;;;;;;;;2.00;2.00;;;;;10.51;75.75;100204.09;5054414;28;45596;-59
2023/04/15 07:49:42;;;;;;;;;2.00;2.00;;;;;10.51;74.87;100209.34;5055183;28;45495;-60
2023/04/15 07:52:07;;;;;;;;;2.33;2.33;;;;;10.44;74.29;100203.47;5054988;28;45547;-59
2023/04/15 07:54:33;;;;;;;;;1.33;1.33;;;;;10.51;74.97;100214.63;5057294;28;53341;-59
2023/04/15 07:56:58;;;;;;;;;2.00;2.00;;;;;10.47;75.39;100226.16;5057751;28;45436;-66
2023/04/15 07:59:24;;;;;;;;;1.67;1.67;;;;;10.47;75.46;100231.41;5057838;28;45551;-61
2023/04/15 08:01:49;;;;;;;;;1.00;1.00;;;;;10.47;75.01;100241.94;5057822;28;45432;-60
2023/04/15 08:04:14;;;;;;;;;0.00;0.00;;;;;10.34;75.28;100208.28;5057526;28;56447;-61
2023/04/15 08:06:40;;;;;;;;;1.00;1.00;;;;;10.46;75.20;100245.50;5058710;28;45398;-61
2023/04/15 08:09:07;;;;;;;;;2.00;2.00;;;;;10.43;75.42;100240.38;5057026;28;45380;-57
2023/04/15 08:11:32;;;;;;;;;4.00;2.33;;;;;10.45;76.33;100264.78;5055411;28;45606;-58
2023/04/15 08:13:58;;;;;;;;;3.33;3.33;;;;;10.34;76.06;100247.72;5055970;28;45526;-61
2023/04/15 08:16:26;;;;;;;;;1.67;1.67;;;;;10.46;76.05;100263.91;5058415;28;45445;-60
2023/04/15 08:18:54;;;;;;;;;3.00;3.00;;;;;10.47;75.42;100271.72;5057419;28;45648;-59
2023/04/15 08:21:19;;;;;;;;;2.33;2.00;;;;;10.46;75.11;100277.91;5051879;28;45616;-58
2023/04/15 08:23:46;;;;;;;;;2.00;1.00;;;;;10.49;75.25;100285.66;5055172;28;47215;-57
2023/04/15 08:26:12;;;;;;;;;1.67;1.67;;;;;10.49;74.74;100279.53;5058065;28;45448;-58
2023/04/15 08:28:38;;;;;;;;;1.00;1.00;;;;;10.50;74.29;100287.34;5057250;28;45423;-60
2023/04/15 08:31:04;;;;;;;;;1.00;1.00;;;;;10.50;74.66;100291.75;5057087;28;45566;-58
2023/04/15 08:33:29;;;;;;;;;1.00;1.00;;;;;10.43;74.38;100288.53;5057534;28;45476;-60
2023/04/15 08:35:55;;;;;;;;;2.33;2.00;;;;;10.54;75.34;100309.16;5056759;28;45441;-60
2023/04/15 08:38:21;;;;;;;;;2.00;2.00;;;;;10.49;74.60;100301.44;5046632;28;45523;-59
2023/04/15 08:40:47;;;;;;;;;4.00;2.67;;;;;10.56;75.15;100318.69;5053872;28;45548;-58
2023/04/15 08:43:20;;;;;;;;;2.00;2.00;;;;;10.57;74.38;100320.38;5052746;28;45642;-60
2023/04/15 08:45:47;;;;;;;;;2.00;2.00;;;;;10.58;74.79;100319.47;5044406;28;45524;-59
2023/04/15 08:48:17;;;;;;;;;1.67;1.67;;;;;10.63;74.05;100332.44;5057818;28;45423;-59
2023/04/15 08:50:43;;;;;;;;;1.67;1.67;;;;;10.64;74.48;100331.53;5057850;28;45470;-57
2023/04/15 08:53:10;;;;;;;;;1.67;1.67;;;;;10.68;73.54;100351.53;5056236;28;47728;-58
2023/04/15 08:55:42;;;;;;;;;1.00;1.00;;;;;10.71;73.98;100345.28;5057454;28;45443;-59
2023/04/15 08:58:10;;;;;;;;;1.00;1.00;;;;;10.73;73.73;100353.97;5057792;28;45366;-57
2023/04/15 09:00:36;;;;;;;;;2.00;2.00;;;;;10.74;73.94;100356.53;5057584;28;45687;-57
2023/04/15 09:03:04;;;;;;;;;1.00;1.00;;;;;10.76;73.22;100362.59;5057388;28;46231;-60
2023/04/15 09:05:32;;;;;;;;;1.67;1.67;;;;;10.77;73.22;100374.84;5057077;28;45477;-57
2023/04/15 09:07:58;;;;;;;;;1.67;1.67;;;;;10.78;73.97;100355.50;5057514;28;45294;-58
2023/04/15 09:10:23;;;;;;;;;2.00;2.00;;;;;10.79;73.63;100380.88;5057229;28;45362;-58
2023/04/15 09:12:48;;;;;;;;;2.33;1.67;;;;;10.79;71.67;100383.50;5057206;28;45677;-58
2023/04/15 09:15:15;;;;;;;;;1.00;1.00;;;;;10.81;72.03;100392.19;5057392;28;45558;-60
2023/04/15 09:17:44;;;;;;;;;2.00;2.00;;;;;10.83;72.56;100394.78;5057554;28;45514;-60
2023/04/15 09:20:12;;;;;;;;;1.00;1.00;;;;;10.83;71.44;100398.28;5057397;28;45495;-58
2023/04/15 09:22:38;;;;;;;;;1.00;1.00;;;;;10.84;71.78;100399.13;5056840;28;46292;-57
2023/04/15 09:25:25;;;;;;;;;1.00;1.00;;;;;10.76;71.72;100402.03;5054359;28;45443;-58
2023/04/15 09:27:52;;;;;;;;;1.00;1.00;;;;;10.77;71.73;100406.41;5057097;28;45481;-57
2023/04/15 09:30:17;;;;;;;;;2.00;2.00;;;;;10.80;71.45;100424.69;5057318;28;45506;-58
2023/04/15 09:32:58;;;;;;;;;2.33;2.33;;;;;10.83;71.68;100431.63;5056212;28;45438;-58
2023/04/15 09:35:26;;;;;;;;;2.00;2.00;;;;;10.82;70.89;100432.50;5072782;28;45524;-59
2023/04/15 09:37:52;;;;;;;;;3.67;2.67;;;;;10.86;70.54;100443.78;5056550;28;45426;-57
2023/04/15 09:40:38;;;;;;;;;2.00;2.00;;;;;10.83;70.86;100439.50;5056734;28;45545;-58
2023/04/15 09:43:05;;;;;;;;;2.00;2.00;;;;;10.91;70.07;100453.22;5056689;28;45605;-58
2023/04/15 09:45:31;;;;;;;;;1.67;1.67;;;;;10.92;70.52;100452.28;5056999;28;45481;-59
2023/04/15 09:48:16;;;;;;;;;3.33;3.00;;;;;10.97;70.45;100467.91;5056960;28;45378;-57
2023/04/15 09:50:42;;;;;;;;;2.67;2.67;;;;;10.96;70.95;100461.78;5056424;28;45518;-58
2023/04/15 09:53:15;;;;;;;;;1.00;1.00;;;;;11.09;70.56;100474.44;5056456;28;45335;-60
2023/04/15 09:55:45;;;;;;;;;2.00;2.00;;;;;11.11;69.28;100478.75;5056765;28;45403;-60
2023/04/15 09:58:22;;;;;;;;;1.00;1.00;;;;;11.09;69.47;100483.19;5056926;28;45503;-59
2023/04/15 10:00:49;;;;;;;;;1.67;1.67;;;;;11.11;69.53;100472.63;5053324;28;45538;-61
2023/04/15 10:03:26;;;;;;;;;2.00;2.00;;;;;11.17;70.11;100498.69;5049354;28;46020;-59
2023/04/15 10:05:53;;;;;;;;;2.00;2.00;;;;;11.17;69.81;100498.69;5055663;28;45440;-61
2023/04/15 10:08:21;;;;;;;;;1.33;1.33;;;;;11.13;69.18;100494.50;5056542;28;45642;-58
2023/04/15 10:10:47;;;;;;;;;2.67;2.00;;;;;11.21;69.00;100509.06;5056051;28;45559;-58
2023/04/15 10:13:15;;;;;;;;;2.67;2.00;;;;;11.24;69.24;100503.66;5055446;28;46145;-58
2023/04/15 10:15:44;;;;;;;;;4.00;3.00;;;;;11.25;68.99;100510.63;5053385;28;45569;-58
2023/04/15 10:18:13;;;;;;;;;2.00;2.00;;;;;11.27;68.66;100521.13;5055515;28;45512;-58
2023/04/15 10:20:39;;;;;;;;;3.33;3.00;;;;;11.17;67.99;100499.53;5054218;28;45358;-58
2023/04/15 10:23:05;;;;;;;;;2.00;2.00;;;;;11.27;68.65;100527.22;5053166;28;45381;-57
2023/04/15 10:25:32;;;;;;;;;3.00;2.00;;;;;11.28;67.90;100525.44;5052978;28;45410;-55
2023/04/15 10:27:58;;;;;;;;;2.00;2.00;;;;;11.36;68.96;100538.31;5055948;27;45430;-56
2023/04/15 10:30:24;;;;;;;;;3.00;3.00;;;;;11.41;68.57;100533.72;5056302;28;45565;-61
2023/04/15 10:32:50;;;;;;;;;3.00;3.00;;;;;11.38;68.35;100531.22;5055907;28;46955;-54
2023/04/15 10:35:17;;;;;;;;;2.00;2.00;;;;;11.42;67.50;100536.31;5056035;28;45461;-56
2023/04/15 10:37:42;;;;;;;;;3.00;3.00;;;;;11.47;67.19;100544.88;5056206;28;45496;-56
2023/04/15 10:40:30;;;;;;;;;2.33;2.33;;;;;11.50;67.83;100543.91;5056163;28;45570;-56
2023/04/15 10:42:56;;;;;;;;;2.00;2.00;;;;;11.57;67.91;100553.25;5054504;28;46466;-57
2023/04/15 10:45:26;;;;;;;;;3.33;3.00;;;;;11.51;66.71;100537.72;5055762;28;45412;-58
2023/04/15 10:47:54;;;;;;;;;3.00;3.00;;;;;11.64;67.40;100546.84;5056053;28;45426;-57
2023/04/15 10:50:20;;;;;;;;;3.00;3.00;;;;;11.69;67.62;100555.41;5055826;28;45624;-55
2023/04/15 10:52:45;;;;;;;;;2.00;2.00;;;;;11.66;67.64;100549.38;5055378;28;45413;-59
2023/04/15 10:55:15;;;;;;;;;3.00;3.00;;;;;11.77;66.44;100568.28;5054927;28;61836;-58
2023/04/15 10:57:42;;;;;;;;;3.33;3.33;;;;;11.78;67.04;100558.59;5055913;28;45465;-53
2023/04/15 11:00:07;;;;;;;;;2.33;2.33;;;;;11.82;66.85;100574.22;5055667;28;45585;-57
2023/04/15 11:03:04;;;;;;;;;2.00;2.00;;;;;11.82;66.42;100576.84;5055674;28;46242;-59
2023/04/15 11:05:41;;;;;;;;;4.67;3.33;;;;;11.84;66.43;100582.91;5055557;28;45370;-54
2023/04/15 11:08:07;;;;;;;;;2.33;2.33;;;;;11.84;66.28;100579.41;5055575;28;45395;-54
2023/04/15 11:10:33;;;;;;;;;4.00;3.00;;;;;11.88;65.73;100592.44;5055389;28;45438;-55
2023/04/15 11:12:58;;;;;;;;;3.00;3.00;;;;;11.92;66.69;100596.66;5053464;28;45485;-59
2023/04/15 11:15:32;;;;;;;;;2.00;2.00;;;;;11.95;66.36;100590.41;5053185;28;45373;-59
2023/04/15 11:18:07;;;;;;;;;5.00;5.00;;;;;11.96;65.87;100599.19;5054819;28;45511;-61
2023/04/15 11:20:32;;;;;;;;;2.00;2.00;;;;;11.98;65.88;100597.31;5053651;28;45333;-59
2023/04/15 11:22:58;;;;;;;;;5.00;4.00;;;;;11.93;65.93;100593.13;5054483;28;46048;-58